createdAt,value
2016-08-26T00:00:09.183Z,0
2016-08-26T00:01:08.460Z,0
2016-08-26T00:02:09.863Z,0
2016-08-26T00:03:08.446Z,0
2016-08-26T00:04:09.856Z,0
2016-08-26T00:05:08.434Z,0
2016-08-26T00:06:09.135Z,0
2016-08-26T00:07:08.415Z,0
2016-08-26T00:08:09.121Z,0
2016-08-26T00:09:09.117Z,0
2016-08-26T00:10:08.451Z,0
2016-08-26T00:11:09.098Z,0
2016-08-26T00:12:08.386Z,0
2016-08-26T00:13:09.091Z,0
2016-08-26T00:14:08.367Z,0
2016-08-26T00:15:09.071Z,0
2016-08-26T00:16:08.363Z,0
2016-08-26T00:17:09.057Z,0
2016-08-26T00:18:08.347Z,0
2016-08-26T00:19:08.336Z,0
2016-08-26T00:20:08.342Z,0
2016-08-26T00:21:08.325Z,0
2016-08-26T00:22:08.312Z,0
2016-08-26T00:23:09.022Z,0
2016-08-26T00:24:08.313Z,0
2016-08-26T00:25:08.305Z,0
2016-08-26T00:26:09.007Z,0
2016-08-26T00:27:08.999Z,0
2016-08-26T00:28:09.011Z,0
2016-08-26T00:29:08.278Z,0
2016-08-26T00:30:08.977Z,0
2016-08-26T00:31:08.978Z,0
2016-08-26T00:32:08.253Z,0
2016-08-26T00:33:08.971Z,0
2016-08-26T00:34:08.960Z,0
2016-08-26T00:35:08.237Z,0
2016-08-26T00:36:08.251Z,0
2016-08-26T00:37:08.220Z,0
2016-08-26T00:38:08.221Z,0
2016-08-26T00:39:08.213Z,0
2016-08-26T00:40:08.207Z,0
2016-08-26T00:41:08.197Z,0
2016-08-26T00:42:08.196Z,0
2016-08-26T00:43:09.606Z,0
2016-08-26T00:44:08.888Z,0
2016-08-26T00:45:08.176Z,0
2016-08-26T00:46:08.179Z,0
2016-08-26T00:47:08.161Z,0
2016-08-26T00:48:08.155Z,0
2016-08-26T00:49:08.152Z,0
2016-08-26T00:50:08.146Z,0
2016-08-26T00:51:08.138Z,0
2016-08-26T00:52:08.131Z,0
2016-08-26T00:53:08.123Z,0
2016-08-26T00:54:08.874Z,0
2016-08-26T00:55:08.814Z,0
2016-08-26T00:56:08.102Z,0
2016-08-26T00:57:08.102Z,0
2016-08-26T00:58:08.093Z,0
2016-08-26T00:59:08.087Z,0
2016-08-26T01:00:09.500Z,0
2016-08-26T01:01:08.087Z,0
2016-08-26T01:02:08.774Z,0
2016-08-26T01:03:08.060Z,0
2016-08-26T01:04:08.055Z,0
2016-08-26T01:05:08.040Z,0
2016-08-26T01:06:08.039Z,0
2016-08-26T01:07:08.735Z,0
2016-08-26T01:08:08.740Z,0
2016-08-26T01:09:08.025Z,0
2016-08-26T01:10:08.011Z,0
2016-08-26T01:11:08.720Z,0
2016-08-26T01:12:07.995Z,0
2016-08-26T01:13:08.698Z,0
2016-08-26T01:14:07.986Z,0
2016-08-26T01:15:07.978Z,0
2016-08-26T01:16:08.681Z,0
2016-08-26T01:17:07.963Z,0
2016-08-26T01:18:07.958Z,0
2016-08-26T01:19:07.953Z,0
2016-08-26T01:20:08.702Z,0
2016-08-26T01:21:07.937Z,0
2016-08-26T01:22:07.932Z,0
2016-08-26T01:23:08.636Z,0
2016-08-26T01:24:09.336Z,0
2016-08-26T01:25:07.914Z,0
2016-08-26T01:26:08.621Z,0
2016-08-26T01:27:08.606Z,0
2016-08-26T01:28:07.888Z,0
2016-08-26T01:29:07.899Z,0
2016-08-26T01:30:07.923Z,0
2016-08-26T01:31:08.582Z,0
2016-08-26T01:32:07.866Z,0
2016-08-26T01:33:07.866Z,0
2016-08-26T01:34:07.861Z,0
2016-08-26T01:35:08.551Z,0
2016-08-26T01:36:08.554Z,0
2016-08-26T01:37:07.843Z,0
2016-08-26T01:38:07.821Z,0
2016-08-26T01:39:07.815Z,0
2016-08-26T01:40:07.809Z,0
2016-08-26T01:41:07.806Z,0
2016-08-26T01:42:07.797Z,0
2016-08-26T01:43:08.506Z,0
2016-08-26T01:44:07.786Z,0
2016-08-26T01:45:07.771Z,0
2016-08-26T01:46:07.775Z,0
2016-08-26T01:47:07.765Z,0
2016-08-26T01:48:07.768Z,0
2016-08-26T01:49:07.756Z,0
2016-08-26T01:50:07.744Z,0
2016-08-26T01:51:07.737Z,0
2016-08-26T01:52:07.733Z,0
2016-08-26T01:53:08.430Z,0
2016-08-26T01:54:08.441Z,0
2016-08-26T01:55:07.703Z,0
2016-08-26T01:56:07.711Z,0
2016-08-26T01:57:07.899Z,0
2016-08-26T01:58:07.696Z,0
2016-08-26T01:59:07.685Z,0
2016-08-26T02:00:08.376Z,0
2016-08-26T02:01:07.668Z,0
2016-08-26T02:02:07.662Z,0
2016-08-26T02:03:08.363Z,0
2016-08-26T02:04:07.654Z,0
2016-08-26T02:05:08.346Z,0
2016-08-26T02:06:07.653Z,0
2016-08-26T02:07:08.340Z,0
2016-08-26T02:08:07.637Z,0
2016-08-26T02:09:08.342Z,0
2016-08-26T02:10:08.314Z,0
2016-08-26T02:11:07.607Z,0
2016-08-26T02:12:08.306Z,0
2016-08-26T02:13:07.586Z,0
2016-08-26T02:14:08.340Z,0
2016-08-26T02:15:07.574Z,0
2016-08-26T02:16:07.564Z,0
2016-08-26T02:17:07.565Z,0
2016-08-26T02:18:07.562Z,0
2016-08-26T02:19:07.550Z,0
2016-08-26T02:20:07.586Z,0
2016-08-26T02:21:07.539Z,0
2016-08-26T02:22:08.239Z,0
2016-08-26T02:23:07.527Z,0
2016-08-26T02:24:07.515Z,0
2016-08-26T02:25:08.210Z,0
2016-08-26T02:26:08.263Z,0
2016-08-26T02:27:08.199Z,0
2016-08-26T02:28:08.903Z,0
2016-08-26T02:29:07.484Z,0
2016-08-26T02:30:07.469Z,0
2016-08-26T02:31:07.471Z,0
2016-08-26T02:32:07.457Z,0
2016-08-26T02:33:08.874Z,0
2016-08-26T02:34:07.450Z,0
2016-08-26T02:35:07.440Z,0
2016-08-26T02:36:07.432Z,0
2016-08-26T02:37:08.152Z,0
2016-08-26T02:38:07.438Z,0
2016-08-26T02:39:07.418Z,0
2016-08-26T02:40:07.452Z,0
2016-08-26T02:41:07.398Z,0
2016-08-26T02:42:07.448Z,0
2016-08-26T02:43:07.391Z,0
2016-08-26T02:44:07.391Z,0
2016-08-26T02:45:07.366Z,0
2016-08-26T02:46:07.362Z,0
2016-08-26T02:47:07.366Z,0
2016-08-26T02:48:07.352Z,0
2016-08-26T02:49:07.342Z,0
2016-08-26T02:50:08.043Z,0
2016-08-26T02:51:07.335Z,0
2016-08-26T02:52:07.324Z,0
2016-08-26T02:53:08.729Z,0
2016-08-26T02:54:08.022Z,0
2016-08-26T02:55:07.300Z,0
2016-08-26T02:56:07.291Z,0
2016-08-26T02:57:07.285Z,0
2016-08-26T02:58:07.279Z,0
2016-08-26T02:59:07.284Z,0
2016-08-26T03:00:07.266Z,0
2016-08-26T03:01:07.276Z,0
2016-08-26T03:02:07.270Z,0
2016-08-26T03:03:09.471Z,0
2016-08-26T03:04:07.249Z,0
2016-08-26T03:05:08.655Z,0
2016-08-26T03:06:07.227Z,0
2016-08-26T03:07:07.924Z,0
2016-08-26T03:08:07.208Z,0
2016-08-26T03:09:07.915Z,0
2016-08-26T03:10:07.199Z,0
2016-08-26T03:11:07.198Z,0
2016-08-26T03:12:07.194Z,0
2016-08-26T03:13:07.178Z,0
2016-08-26T03:14:07.879Z,0
2016-08-26T03:15:07.871Z,0
2016-08-26T03:16:07.881Z,0
2016-08-26T03:17:07.157Z,0
2016-08-26T03:18:07.850Z,0
2016-08-26T03:19:07.138Z,0
2016-08-26T03:20:07.133Z,0
2016-08-26T03:21:07.126Z,0
2016-08-26T03:22:07.115Z,0
2016-08-26T03:23:07.108Z,0
2016-08-26T03:24:07.103Z,0
2016-08-26T03:25:07.100Z,0
2016-08-26T03:26:07.087Z,0
2016-08-26T03:27:07.082Z,0
2016-08-26T03:28:07.073Z,0
2016-08-26T03:29:07.788Z,0
2016-08-26T03:30:07.063Z,0
2016-08-26T03:31:07.056Z,0
2016-08-26T03:32:07.067Z,0
2016-08-26T03:33:07.079Z,0
2016-08-26T03:34:07.043Z,0
2016-08-26T03:35:07.028Z,0
2016-08-26T03:36:07.018Z,0
2016-08-26T03:37:07.007Z,0
2016-08-26T03:38:06.996Z,0
2016-08-26T03:39:07.713Z,0
2016-08-26T03:40:06.985Z,0
2016-08-26T03:41:07.688Z,0
2016-08-26T03:42:06.978Z,0
2016-08-26T03:43:06.990Z,0
2016-08-26T03:44:06.972Z,0
2016-08-26T03:45:06.959Z,0
2016-08-26T03:46:06.950Z,0
2016-08-26T03:47:06.944Z,0
2016-08-26T03:48:06.938Z,0
2016-08-26T03:49:06.946Z,0
2016-08-26T03:50:07.641Z,0
2016-08-26T03:51:07.619Z,0
2016-08-26T03:52:06.909Z,0
2016-08-26T03:53:06.893Z,0
2016-08-26T03:54:06.897Z,0
2016-08-26T03:55:07.590Z,0
2016-08-26T03:56:06.886Z,0
2016-08-26T03:57:07.076Z,0
2016-08-26T03:58:06.855Z,0
2016-08-26T03:59:06.859Z,0
2016-08-26T04:00:08.975Z,0
2016-08-26T04:01:06.863Z,4
2016-08-26T04:02:06.835Z,4
2016-08-26T04:03:06.825Z,0
2016-08-26T04:04:06.836Z,4
2016-08-26T04:05:06.870Z,4
2016-08-26T04:06:06.810Z,4
2016-08-26T04:07:07.510Z,4
2016-08-26T04:08:07.498Z,4
2016-08-26T04:09:06.805Z,4
2016-08-26T04:10:09.123Z,4
2016-08-26T04:11:06.783Z,8
2016-08-26T04:12:06.770Z,8
2016-08-26T04:13:06.762Z,12
2016-08-26T04:14:08.217Z,12
2016-08-26T04:15:07.446Z,20
2016-08-26T04:16:06.735Z,20
2016-08-26T04:17:06.729Z,24
2016-08-26T04:18:07.428Z,24
2016-08-26T04:19:06.723Z,32
2016-08-26T04:20:06.704Z,36
2016-08-26T04:21:06.690Z,40
2016-08-26T04:22:06.693Z,48
2016-08-26T04:23:07.394Z,52
2016-08-26T04:24:07.383Z,64
2016-08-26T04:25:06.669Z,68
2016-08-26T04:26:06.656Z,80
2016-08-26T04:27:06.652Z,88
2016-08-26T04:28:07.353Z,96
2016-08-26T04:29:06.636Z,108
2016-08-26T04:30:06.637Z,120
2016-08-26T04:31:06.626Z,136
2016-08-26T04:32:07.341Z,148
2016-08-26T04:33:06.614Z,156
2016-08-26T04:34:06.601Z,172
2016-08-26T04:35:06.599Z,192
2016-08-26T04:36:06.587Z,204
2016-08-26T04:37:06.586Z,220
2016-08-26T04:38:07.279Z,240
2016-08-26T04:39:06.621Z,256
2016-08-26T04:40:06.589Z,276
2016-08-26T04:41:07.268Z,292
2016-08-26T04:42:07.259Z,312
2016-08-26T04:43:07.265Z,328
2016-08-26T04:44:06.533Z,352
2016-08-26T04:45:07.234Z,372
2016-08-26T04:46:07.232Z,392
2016-08-26T04:47:06.508Z,412
2016-08-26T04:48:07.222Z,432
2016-08-26T04:49:07.204Z,452
2016-08-26T04:50:07.203Z,472
2016-08-26T04:51:07.193Z,492
2016-08-26T04:52:06.478Z,516
2016-08-26T04:53:07.177Z,532
2016-08-26T04:54:06.461Z,556
2016-08-26T04:55:06.506Z,576
2016-08-26T04:56:06.464Z,592
2016-08-26T04:57:06.448Z,612
2016-08-26T04:58:07.144Z,636
2016-08-26T04:59:06.429Z,656
2016-08-26T05:00:06.418Z,672
2016-08-26T05:01:06.416Z,692
2016-08-26T05:02:07.108Z,712
2016-08-26T05:03:07.106Z,732
2016-08-26T05:04:07.101Z,752
2016-08-26T05:05:06.380Z,768
2016-08-26T05:06:07.085Z,792
2016-08-26T05:07:06.361Z,808
2016-08-26T05:08:06.356Z,828
2016-08-26T05:09:06.360Z,848
2016-08-26T05:10:06.346Z,868
2016-08-26T05:11:07.752Z,888
2016-08-26T05:12:06.329Z,908
2016-08-26T05:13:06.322Z,924
2016-08-26T05:14:06.314Z,944
2016-08-26T05:15:08.428Z,960
2016-08-26T05:16:07.011Z,980
2016-08-26T05:17:06.302Z,1000
2016-08-26T05:18:06.296Z,1020
2016-08-26T05:19:06.276Z,1040
2016-08-26T05:20:06.267Z,1060
2016-08-26T05:21:06.267Z,1080
2016-08-26T05:22:06.254Z,1096
2016-08-26T05:23:06.249Z,1116
2016-08-26T05:24:06.244Z,1132
2016-08-26T05:25:06.941Z,1148
2016-08-26T05:26:06.226Z,1160
2016-08-26T05:27:07.639Z,1172
2016-08-26T05:28:06.210Z,1188
2016-08-26T05:29:06.216Z,1196
2016-08-26T05:30:06.198Z,1212
2016-08-26T05:31:06.245Z,1232
2016-08-26T05:32:07.603Z,1248
2016-08-26T05:33:06.174Z,1260
2016-08-26T05:34:06.871Z,1272
2016-08-26T05:35:06.868Z,1292
2016-08-26T05:36:06.149Z,1304
2016-08-26T05:37:06.861Z,1316
2016-08-26T05:38:06.138Z,1320
2016-08-26T05:39:06.124Z,1316
2016-08-26T05:40:07.546Z,1320
2016-08-26T05:41:06.128Z,1328
2016-08-26T05:42:06.814Z,1336
2016-08-26T05:43:06.102Z,1352
2016-08-26T05:44:06.803Z,1364
2016-08-26T05:45:06.799Z,1384
2016-08-26T05:46:07.497Z,1396
2016-08-26T05:47:06.778Z,1404
2016-08-26T05:48:06.776Z,1412
2016-08-26T05:49:06.065Z,1416
2016-08-26T05:50:06.771Z,1416
2016-08-26T05:51:06.053Z,1412
2016-08-26T05:52:06.037Z,1416
2016-08-26T05:53:06.027Z,1424
2016-08-26T05:54:06.025Z,1436
2016-08-26T05:55:06.017Z,1448
2016-08-26T05:56:06.007Z,1464
2016-08-26T05:57:06.210Z,1484
2016-08-26T05:58:05.994Z,1504
2016-08-26T05:59:05.989Z,1524
2016-08-26T06:00:07.401Z,1548
2016-08-26T06:01:05.969Z,1572
2016-08-26T06:02:06.676Z,1600
2016-08-26T06:03:05.959Z,1628
2016-08-26T06:04:05.958Z,1660
2016-08-26T06:05:07.465Z,1700
2016-08-26T06:06:06.668Z,1724
2016-08-26T06:07:05.939Z,1736
2016-08-26T06:08:05.931Z,1724
2016-08-26T06:09:07.333Z,1724
2016-08-26T06:10:06.669Z,1724
2016-08-26T06:11:05.904Z,1704
2016-08-26T06:12:06.600Z,1700
2016-08-26T06:13:06.609Z,1708
2016-08-26T06:14:08.012Z,1700
2016-08-26T06:15:05.872Z,1692
2016-08-26T06:16:05.870Z,1684
2016-08-26T06:17:05.870Z,1684
2016-08-26T06:18:05.861Z,1712
2016-08-26T06:19:05.855Z,1764
2016-08-26T06:20:05.849Z,1800
2016-08-26T06:21:06.550Z,1832
2016-08-26T06:22:06.537Z,1864
2016-08-26T06:23:07.242Z,1892
2016-08-26T06:24:05.817Z,1904
2016-08-26T06:25:05.809Z,1924
2016-08-26T06:26:06.503Z,1924
2016-08-26T06:27:05.850Z,1932
2016-08-26T06:28:05.797Z,1964
2016-08-26T06:29:07.194Z,1976
2016-08-26T06:30:07.196Z,2008
2016-08-26T06:31:05.774Z,2052
2016-08-26T06:32:06.469Z,2108
2016-08-26T06:33:05.756Z,2224
2016-08-26T06:34:05.747Z,2292
2016-08-26T06:35:06.541Z,2352
2016-08-26T06:36:05.737Z,2412
2016-08-26T06:37:06.435Z,2456
2016-08-26T06:38:05.725Z,2496
2016-08-26T06:39:06.424Z,2540
2016-08-26T06:40:05.713Z,2588
2016-08-26T06:41:05.708Z,2648
2016-08-26T06:42:05.711Z,2696
2016-08-26T06:43:05.702Z,2736
2016-08-26T06:44:05.701Z,2760
2016-08-26T06:45:05.707Z,2756
2016-08-26T06:46:05.681Z,2760
2016-08-26T06:47:05.680Z,2752
2016-08-26T06:48:05.720Z,2760
2016-08-26T06:49:06.362Z,2772
2016-08-26T06:50:06.370Z,2788
2016-08-26T06:51:05.639Z,2856
2016-08-26T06:52:06.343Z,2892
2016-08-26T06:53:05.633Z,2948
2016-08-26T06:54:06.382Z,2948
2016-08-26T06:55:05.617Z,2908
2016-08-26T06:56:06.334Z,2868
2016-08-26T06:57:06.312Z,2800
2016-08-26T06:58:05.605Z,2704
2016-08-26T06:59:05.595Z,2696
2016-08-26T07:00:05.605Z,2760
2016-08-26T07:01:05.580Z,2704
2016-08-26T07:02:06.301Z,2640
2016-08-26T07:03:06.281Z,2592
2016-08-26T07:04:05.576Z,2548
2016-08-26T07:05:05.567Z,2532
2016-08-26T07:06:05.584Z,2544
2016-08-26T07:07:06.271Z,2572
2016-08-26T07:08:05.541Z,2612
2016-08-26T07:09:05.544Z,2640
2016-08-26T07:10:06.252Z,2616
2016-08-26T07:11:06.236Z,2596
2016-08-26T07:12:06.293Z,2588
2016-08-26T07:13:05.523Z,2548
2016-08-26T07:14:06.230Z,2544
2016-08-26T07:15:06.922Z,2588
2016-08-26T07:16:05.522Z,2656
2016-08-26T07:17:05.490Z,2780
2016-08-26T07:18:06.198Z,2884
2016-08-26T07:19:06.188Z,2980
2016-08-26T07:20:05.486Z,3032
2016-08-26T07:21:05.469Z,3048
2016-08-26T07:22:06.189Z,3072
2016-08-26T07:23:05.464Z,3092
2016-08-26T07:24:06.157Z,3136
2016-08-26T07:25:05.449Z,3128
2016-08-26T07:26:05.452Z,3140
2016-08-26T07:27:05.431Z,3204
2016-08-26T07:28:05.455Z,3272
2016-08-26T07:29:05.425Z,3392
2016-08-26T07:30:05.414Z,3508
2016-08-26T07:31:05.415Z,3684
2016-08-26T07:32:05.410Z,3868
2016-08-26T07:33:05.405Z,4036
2016-08-26T07:34:05.397Z,4036
2016-08-26T07:35:05.399Z,3968
2016-08-26T07:36:06.104Z,3776
2016-08-26T07:37:05.381Z,3572
2016-08-26T07:38:05.380Z,3420
2016-08-26T07:39:06.784Z,3608
2016-08-26T07:40:05.364Z,3616
2016-08-26T07:41:05.367Z,3552
2016-08-26T07:42:05.357Z,3448
2016-08-26T07:43:06.062Z,3360
2016-08-26T07:44:05.345Z,3216
2016-08-26T07:45:06.052Z,3060
2016-08-26T07:46:06.065Z,3036
2016-08-26T07:47:05.343Z,3044
2016-08-26T07:48:06.036Z,2976
2016-08-26T07:49:05.315Z,2956
2016-08-26T07:50:05.322Z,2956
2016-08-26T07:51:06.013Z,2988
2016-08-26T07:52:06.014Z,3028
2016-08-26T07:53:05.306Z,3120
2016-08-26T07:54:05.998Z,3120
2016-08-26T07:55:05.294Z,3108
2016-08-26T07:56:05.418Z,3160
2016-08-26T07:57:06.946Z,3168
2016-08-26T07:58:06.039Z,3088
2016-08-26T07:59:05.991Z,3008
2016-08-26T08:00:05.269Z,2968
2016-08-26T08:01:05.974Z,3100
2016-08-26T08:02:05.259Z,3216
2016-08-26T08:03:06.006Z,3356
2016-08-26T08:04:05.246Z,3500
2016-08-26T08:05:06.712Z,3708
2016-08-26T08:06:05.236Z,3928
2016-08-26T08:07:06.655Z,4152
2016-08-26T08:08:05.936Z,4400
2016-08-26T08:09:05.222Z,4632
2016-08-26T08:10:05.216Z,4844
2016-08-26T08:11:06.633Z,5020
2016-08-26T08:12:05.213Z,5024
2016-08-26T08:13:05.202Z,5288
2016-08-26T08:14:05.943Z,11496
2016-08-26T08:15:06.616Z,27904
2016-08-26T08:16:05.198Z,17280
2016-08-26T08:17:05.183Z,26656
2016-08-26T08:18:05.179Z,31904
2016-08-26T08:19:05.890Z,23968
2016-08-26T08:20:05.172Z,11376
2016-08-26T08:21:05.371Z,6716
2016-08-26T08:22:06.576Z,4768
2016-08-26T08:23:05.870Z,6064
2016-08-26T08:24:05.156Z,13200
2016-08-26T08:25:05.155Z,16752
2016-08-26T08:26:05.141Z,16640
2016-08-26T08:27:05.149Z,18368
2016-08-26T08:28:05.140Z,19136
2016-08-26T08:29:05.142Z,18240
2016-08-26T08:30:05.145Z,20736
2016-08-26T08:31:06.553Z,33440
2016-08-26T08:32:05.830Z,27072
2016-08-26T08:33:05.123Z,19488
2016-08-26T08:34:05.840Z,23360
2016-08-26T08:35:05.818Z,17536
2016-08-26T08:36:05.811Z,9268
2016-08-26T08:37:05.108Z,6812
2016-08-26T08:38:05.103Z,1344
2016-08-26T08:39:05.805Z,15296
2016-08-26T08:40:05.106Z,20784
2016-08-26T08:41:05.793Z,4644
2016-08-26T08:42:05.085Z,4076
2016-08-26T08:43:05.845Z,3740
2016-08-26T08:44:05.082Z,3700
2016-08-26T08:45:05.844Z,3708
2016-08-26T08:46:05.077Z,3788
2016-08-26T08:47:06.487Z,3928
2016-08-26T08:48:05.796Z,3824
2016-08-26T08:49:05.775Z,3708
2016-08-26T08:50:05.777Z,3604
2016-08-26T08:51:05.070Z,3692
2016-08-26T08:52:05.054Z,3996
2016-08-26T08:53:05.067Z,5424
2016-08-26T08:54:05.066Z,5284
2016-08-26T08:55:05.757Z,5980
2016-08-26T08:56:05.045Z,3420
2016-08-26T08:57:06.466Z,4260
2016-08-26T08:58:05.039Z,5828
2016-08-26T08:59:05.742Z,5288
2016-08-26T09:00:05.036Z,4344
2016-08-26T09:01:05.025Z,4156
2016-08-26T09:02:05.025Z,3872
2016-08-26T09:03:05.021Z,5472
2016-08-26T09:04:05.021Z,4792
2016-08-26T09:05:05.013Z,7704
2016-08-26T09:06:05.005Z,9040
2016-08-26T09:07:05.007Z,13496
2016-08-26T09:08:05.704Z,14412
2016-08-26T09:09:04.993Z,8504
2016-08-26T09:10:05.016Z,11532
2016-08-26T09:11:04.992Z,10576
2016-08-26T09:12:04.985Z,10144
2016-08-26T09:13:04.975Z,11296
2016-08-26T09:14:04.983Z,6456
2016-08-26T09:15:04.978Z,5848
2016-08-26T09:16:04.964Z,7680
2016-08-26T09:17:04.978Z,7528
2016-08-26T09:18:04.969Z,4460
2016-08-26T09:19:05.663Z,4720
2016-08-26T09:20:04.970Z,4780
2016-08-26T09:21:05.012Z,4180
2016-08-26T09:22:05.660Z,4184
2016-08-26T09:23:04.949Z,3880
2016-08-26T09:24:04.951Z,3920
2016-08-26T09:25:04.940Z,4720
2016-08-26T09:26:04.941Z,4248
2016-08-26T09:27:04.931Z,4192
2016-08-26T09:28:04.938Z,4200
2016-08-26T09:29:05.643Z,4864
2016-08-26T09:30:04.925Z,4376
2016-08-26T09:31:04.920Z,5876
2016-08-26T09:32:04.942Z,9224
2016-08-26T09:33:04.905Z,10068
2016-08-26T09:34:04.903Z,5680
2016-08-26T09:35:04.905Z,4824
2016-08-26T09:36:04.950Z,4820
2016-08-26T09:37:05.600Z,4864
2016-08-26T09:38:04.894Z,5112
2016-08-26T09:39:04.891Z,5460
2016-08-26T09:40:04.884Z,5416
2016-08-26T09:41:05.591Z,5476
2016-08-26T09:42:04.884Z,5808
2016-08-26T09:43:04.872Z,5436
2016-08-26T09:44:04.868Z,5552
2016-08-26T09:45:05.609Z,5684
2016-08-26T09:46:04.863Z,5912
2016-08-26T09:47:04.882Z,6092
2016-08-26T09:48:04.853Z,5872
2016-08-26T09:49:04.850Z,5716
2016-08-26T09:50:04.850Z,5068
2016-08-26T09:51:05.546Z,4708
2016-08-26T09:52:04.846Z,4656
2016-08-26T09:53:04.836Z,4744
2016-08-26T09:54:05.563Z,4944
2016-08-26T09:55:04.831Z,5240
2016-08-26T09:56:04.830Z,5948
2016-08-26T09:57:05.947Z,5512
2016-08-26T09:58:05.532Z,5448
2016-08-26T09:59:04.820Z,5752
2016-08-26T10:00:04.824Z,8032
2016-08-26T10:01:04.814Z,6572
2016-08-26T10:02:05.516Z,7724
2016-08-26T10:03:04.805Z,6960
2016-08-26T10:04:05.513Z,5748
2016-08-26T10:05:04.799Z,6148
2016-08-26T10:06:04.804Z,5968
2016-08-26T10:07:05.496Z,5176
2016-08-26T10:08:04.799Z,5460
2016-08-26T10:09:04.784Z,5508
2016-08-26T10:10:05.489Z,5464
2016-08-26T10:11:04.777Z,5824
2016-08-26T10:12:04.771Z,6076
2016-08-26T10:13:04.776Z,6164
2016-08-26T10:14:04.772Z,6568
2016-08-26T10:15:06.180Z,6264
2016-08-26T10:16:04.772Z,7712
2016-08-26T10:17:06.164Z,6172
2016-08-26T10:18:04.760Z,6104
2016-08-26T10:19:04.746Z,5408
2016-08-26T10:20:06.890Z,5968
2016-08-26T10:21:06.161Z,5816
2016-08-26T10:22:05.444Z,5704
2016-08-26T10:23:06.146Z,6288
2016-08-26T10:24:05.437Z,6336
2016-08-26T10:25:05.499Z,9880
2016-08-26T10:26:05.431Z,11504
2016-08-26T10:27:04.723Z,10160
2016-08-26T10:28:05.429Z,11648
2016-08-26T10:29:04.712Z,8192
2016-08-26T10:30:05.421Z,6256
2016-08-26T10:31:04.719Z,5780
2016-08-26T10:32:04.700Z,5884
2016-08-26T10:33:05.410Z,6820
2016-08-26T10:34:04.700Z,9016
2016-08-26T10:35:04.694Z,10588
2016-08-26T10:36:04.706Z,10928
2016-08-26T10:37:05.393Z,11584
2016-08-26T10:38:04.680Z,13164
2016-08-26T10:39:04.734Z,14204
2016-08-26T10:40:04.684Z,16712
2016-08-26T10:41:04.675Z,17440
2016-08-26T10:42:06.090Z,14572
2016-08-26T10:43:04.666Z,12248
2016-08-26T10:44:05.371Z,10156
2016-08-26T10:45:05.370Z,9788
2016-08-26T10:46:04.663Z,8940
2016-08-26T10:47:04.658Z,8044
2016-08-26T10:48:04.655Z,7128
2016-08-26T10:49:04.655Z,6896
2016-08-26T10:50:05.360Z,7412
2016-08-26T10:51:05.355Z,9084
2016-08-26T10:52:04.663Z,9808
2016-08-26T10:53:04.642Z,14860
2016-08-26T10:54:04.640Z,19776
2016-08-26T10:55:04.636Z,18112
2016-08-26T10:56:04.638Z,20928
2016-08-26T10:57:04.634Z,11004
2016-08-26T10:58:05.345Z,16380
2016-08-26T10:59:04.638Z,39104
2016-08-26T11:00:04.625Z,28352
2016-08-26T11:01:04.628Z,69920
2016-08-26T11:02:05.330Z,28672
2016-08-26T11:03:04.620Z,33664
2016-08-26T11:04:05.326Z,25152
2016-08-26T11:05:05.386Z,15232
2016-08-26T11:06:04.632Z,27328
2016-08-26T11:07:04.631Z,35776
2016-08-26T11:08:05.330Z,39040
2016-08-26T11:09:05.320Z,54688
2016-08-26T11:10:04.608Z,63264
2016-08-26T11:11:04.607Z,66112
2016-08-26T11:12:04.610Z,67456
2016-08-26T11:13:04.605Z,69408
2016-08-26T11:14:04.612Z,78400
2016-08-26T11:15:05.315Z,82208
2016-08-26T11:16:05.350Z,84448
2016-08-26T11:17:06.028Z,83616
2016-08-26T11:18:04.615Z,80512
2016-08-26T11:19:06.035Z,75360
2016-08-26T11:20:05.331Z,69184
2016-08-26T11:21:04.613Z,50336
2016-08-26T11:22:05.330Z,54048
2016-08-26T11:23:06.037Z,58560
2016-08-26T11:24:05.332Z,62560
2016-08-26T11:25:04.633Z,66144
2016-08-26T11:26:05.341Z,76992
2016-08-26T11:27:04.635Z,80960
2016-08-26T11:28:04.650Z,79520
2016-08-26T11:29:05.357Z,75648
2016-08-26T11:30:05.353Z,69472
2016-08-26T11:31:04.854Z,63840
2016-08-26T11:32:04.655Z,60224
2016-08-26T11:33:04.661Z,57408
2016-08-26T11:34:06.078Z,55680
2016-08-26T11:35:04.666Z,52768
2016-08-26T11:36:06.097Z,54912
2016-08-26T11:37:06.114Z,73632
2016-08-26T11:38:05.392Z,73184
2016-08-26T11:39:06.099Z,75552
2016-08-26T11:40:05.408Z,71008
2016-08-26T11:41:05.404Z,66624
2016-08-26T11:42:04.698Z,65504
2016-08-26T11:43:04.700Z,63872
2016-08-26T11:44:04.710Z,65888
2016-08-26T11:45:04.716Z,70432
2016-08-26T11:46:04.717Z,75552
2016-08-26T11:47:05.435Z,79040
2016-08-26T11:48:04.726Z,77984
2016-08-26T11:49:05.435Z,80416
2016-08-26T11:50:05.453Z,77216
2016-08-26T11:51:04.741Z,78528
2016-08-26T11:52:04.747Z,85376
2016-08-26T11:53:05.481Z,91456
2016-08-26T11:54:04.765Z,94880
2016-08-26T11:55:04.763Z,94432
2016-08-26T11:56:04.780Z,85248
2016-08-26T11:57:04.794Z,79936
2016-08-26T11:58:05.493Z,78240
2016-08-26T11:59:05.515Z,74624
2016-08-26T12:00:05.523Z,76928
2016-08-26T12:01:04.805Z,77600
2016-08-26T12:02:04.818Z,80736
2016-08-26T12:03:04.819Z,86208
2016-08-26T12:04:05.530Z,87392
2016-08-26T12:05:04.843Z,86240
2016-08-26T12:06:04.847Z,83456
2016-08-26T12:07:04.856Z,82880
2016-08-26T12:08:04.853Z,78560
2016-08-26T12:09:04.871Z,74944
2016-08-26T12:10:05.575Z,74080
2016-08-26T12:11:04.878Z,76064
2016-08-26T12:12:05.604Z,78080
2016-08-26T12:13:04.897Z,80608
2016-08-26T12:14:04.906Z,83648
2016-08-26T12:15:05.609Z,85824
2016-08-26T12:16:07.064Z,86880
2016-08-26T12:17:05.634Z,86656
2016-08-26T12:18:04.946Z,86368
2016-08-26T12:19:04.948Z,87520
2016-08-26T12:20:06.360Z,87904
2016-08-26T12:21:04.971Z,86624
2016-08-26T12:22:04.956Z,86880
2016-08-26T12:23:04.966Z,84480
2016-08-26T12:24:04.974Z,89440
2016-08-26T12:25:05.706Z,92416
2016-08-26T12:26:05.026Z,87744
2016-08-26T12:27:05.717Z,93600
2016-08-26T12:28:05.739Z,92288
2016-08-26T12:29:05.733Z,93056
2016-08-26T12:30:06.461Z,92160
2016-08-26T12:31:05.738Z,91232
2016-08-26T12:32:05.052Z,86624
2016-08-26T12:33:05.057Z,81696
2016-08-26T12:34:05.761Z,76800
2016-08-26T12:35:05.799Z,71968
2016-08-26T12:36:05.812Z,66976
2016-08-26T12:37:05.099Z,65184
2016-08-26T12:38:05.809Z,66144
2016-08-26T12:39:05.810Z,68896
2016-08-26T12:40:05.122Z,73024
2016-08-26T12:41:05.107Z,78368
2016-08-26T12:42:05.115Z,81472
2016-08-26T12:43:05.133Z,80544
2016-08-26T12:44:05.848Z,76992
2016-08-26T12:45:05.144Z,75136
2016-08-26T12:46:05.148Z,71744
2016-08-26T12:47:06.576Z,66336
2016-08-26T12:48:05.161Z,63936
2016-08-26T12:49:05.879Z,65504
2016-08-26T12:50:05.182Z,68320
2016-08-26T12:51:05.189Z,73472
2016-08-26T12:52:05.192Z,79584
2016-08-26T12:53:05.205Z,82400
2016-08-26T12:54:05.214Z,83648
2016-08-26T12:55:05.226Z,80608
2016-08-26T12:56:05.231Z,77760
2016-08-26T12:57:05.945Z,75616
2016-08-26T12:58:05.270Z,73920
2016-08-26T12:59:05.307Z,72032
2016-08-26T13:00:05.265Z,74208
2016-08-26T13:01:06.691Z,75360
2016-08-26T13:02:05.983Z,76768
2016-08-26T13:03:05.277Z,77376
2016-08-26T13:04:06.000Z,76160
2016-08-26T13:05:05.509Z,77536
2016-08-26T13:06:05.311Z,80224
2016-08-26T13:07:06.008Z,87584
2016-08-26T13:08:06.023Z,87008
2016-08-26T13:09:05.319Z,88288
2016-08-26T13:10:05.333Z,85760
2016-08-26T13:11:06.045Z,81504
2016-08-26T13:12:05.336Z,78560
2016-08-26T13:13:06.768Z,72512
2016-08-26T13:14:05.414Z,69568
2016-08-26T13:15:05.365Z,67680
2016-08-26T13:16:05.375Z,66720
2016-08-26T13:17:05.374Z,69152
2016-08-26T13:18:05.386Z,71360
2016-08-26T13:19:06.113Z,72160
2016-08-26T13:20:06.127Z,72448
2016-08-26T13:21:06.113Z,72224
2016-08-26T13:22:06.123Z,69952
2016-08-26T13:23:05.416Z,68416
2016-08-26T13:24:06.139Z,69632
2016-08-26T13:25:06.143Z,72448
2016-08-26T13:26:05.439Z,75456
2016-08-26T13:27:05.452Z,79360
2016-08-26T13:28:05.454Z,83232
2016-08-26T13:29:05.463Z,84448
2016-08-26T13:30:05.469Z,82944
2016-08-26T13:31:06.187Z,80704
2016-08-26T13:32:05.501Z,77504
2016-08-26T13:33:05.512Z,77280
2016-08-26T13:34:06.206Z,77600
2016-08-26T13:35:05.510Z,78080
2016-08-26T13:36:05.512Z,76224
2016-08-26T13:37:06.230Z,75584
2016-08-26T13:38:05.541Z,71200
2016-08-26T13:39:06.238Z,67488